Time;durP1;ratioP1;P1;durP2;ratioP2;P2;SDS_P1;SDS_P2;PMS_P1;PMS_P2;Temp;Humidity;BMP_temperature;BMP_pressure;BME280_temperature;BME280_humidity;BME280_pressure;Samples;Min_cycle;Max_cycle;Signal;HPM_P1;HPM_P2
2021/11/08 00:00:04;;;;;;;1.10;0.80;;;17.90;64.10;;;;;;5104817;28;20031;-37
2021/11/08 00:02:30;;;;;;;1.10;0.75;;;17.90;64.10;;;;;;5105541;28;20028;-37
2021/11/08 00:04:57;;;;;;;1.00;0.80;;;17.90;64.10;;;;;;5105595;28;20028;-37
2021/11/08 00:07:24;;;;;;;0.98;0.88;;;17.90;64.30;;;;;;5105118;28;20110;-37
2021/11/08 00:09:50;;;;;;;1.20;0.82;;;17.90;64.20;;;;;;5105261;28;20028;-37
2021/11/08 00:12:18;;;;;;;1.70;0.95;;;17.90;64.30;;;;;;5105085;28;20038;-37
2021/11/08 00:14:45;;;;;;;2.35;0.85;;;17.80;64.20;;;;;;5105283;28;20780;-37
2021/11/08 00:17:21;;;;;;;1.50;0.90;;;17.80;64.20;;;;;;5105314;28;20028;-37
2021/11/08 00:20:06;;;;;;;1.15;0.90;;;17.80;64.20;;;;;;5105187;28;20043;-37
2021/11/08 00:22:35;;;;;;;1.20;0.95;;;17.80;64.20;;;;;;5104924;28;20060;-37
2021/11/08 00:25:02;;;;;;;1.20;0.88;;;17.80;64.40;;;;;;5104995;28;20016;-37
2021/11/08 00:27:28;;;;;;;;;;;17.80;64.30;;;;;;5105548;28;20447;-37
2021/11/08 00:29:55;;;;;;;2.22;1.20;;;17.70;64.20;;;;;;5105141;28;19915;-37
2021/11/08 00:32:21;;;;;;;1.80;1.20;;;17.70;65.00;;;;;;5104473;28;20547;-37
2021/11/08 00:34:48;;;;;;;1.48;1.02;;;17.70;64.20;;;;;;5102044;28;20032;-37
2021/11/08 00:37:14;;;;;;;2.03;1.10;;;17.70;64.40;;;;;;5104754;28;20039;-37
2021/11/08 00:39:40;;;;;;;1.80;1.10;;;17.70;64.30;;;;;;5104463;28;20028;-37
2021/11/08 00:42:07;;;;;;;1.58;1.20;;;17.70;64.30;;;;;;5104892;28;20027;-37
2021/11/08 00:44:33;;;;;;;2.00;1.20;;;17.60;64.30;;;;;;5104658;28;20082;-37
2021/11/08 00:46:59;;;;;;;1.60;1.17;;;17.60;64.40;;;;;;5104639;28;20599;-37
2021/11/08 00:49:27;;;;;;;2.58;1.38;;;17.60;64.40;;;;;;5104760;28;20035;-37
2021/11/08 00:51:53;;;;;;;2.30;1.30;;;17.60;64.40;;;;;;5096517;28;20127;-37
2021/11/08 00:54:20;;;;;;;1.73;1.30;;;17.60;64.50;;;;;;5104603;28;20665;-37
2021/11/08 00:56:52;;;;;;;1.35;1.17;;;17.50;64.30;;;;;;5104319;28;20024;-37
2021/11/08 00:59:18;;;;;;;2.17;1.17;;;17.50;64.40;;;;;;5104729;28;20024;-37
2021/11/08 01:01:47;;;;;;;2.03;1.42;;;17.50;64.50;;;;;;5104625;28;20024;-37
2021/11/08 01:04:18;;;;;;;2.03;1.30;;;17.50;64.50;;;;;;5104355;28;20386;-37
2021/11/08 01:06:47;;;;;;;3.50;1.65;;;17.50;64.60;;;;;;5102815;28;20402;-37
2021/11/08 01:09:14;;;;;;;1.67;1.38;;;17.40;64.60;;;;;;5096490;28;20123;-37
2021/11/08 01:11:40;;;;;;;;;;;17.40;64.50;;;;;;5104515;28;20028;-37
2021/11/08 01:14:06;;;;;;;2.97;1.35;;;17.40;64.60;;;;;;5103875;28;19904;-37
2021/11/08 01:16:33;;;;;;;2.50;1.63;;;17.40;64.60;;;;;;5104071;28;20052;-37
2021/11/08 01:18:59;;;;;;;2.33;1.70;;;17.40;64.60;;;;;;5104089;28;20035;-37
2021/11/08 01:21:26;;;;;;;2.50;1.33;;;17.30;64.60;;;;;;5104213;28;20114;-37
2021/11/08 01:23:52;;;;;;;1.73;1.40;;;17.30;64.60;;;;;;5103755;28;20031;-37
2021/11/08 01:26:19;;;;;;;1.83;1.40;;;17.30;64.60;;;;;;5103856;28;20036;-37
2021/11/08 01:28:47;;;;;;;1.65;1.13;;;17.30;64.70;;;;;;5104084;28;20023;-37
2021/11/08 01:31:14;;;;;;;2.70;1.63;;;17.30;64.70;;;;;;5104115;28;20058;-37
2021/11/08 01:33:48;;;;;;;1.95;1.60;;;17.30;64.70;;;;;;5103907;28;20028;-37
2021/11/08 01:36:17;;;;;;;2.40;1.58;;;17.20;64.70;;;;;;5103619;28;20036;-37
2021/11/08 01:38:46;;;;;;;2.70;1.38;;;17.20;64.80;;;;;;5103449;28;20062;-37
2021/11/08 01:41:14;;;;;;;3.92;1.90;;;17.20;64.80;;;;;;5103627;28;20028;-37
2021/11/08 01:43:41;;;;;;;2.45;1.58;;;17.20;64.80;;;;;;5103691;28;20111;-37
2021/11/08 01:46:08;;;;;;;3.38;1.50;;;17.20;64.90;;;;;;5102480;28;20039;-37
2021/11/08 01:48:34;;;;;;;2.25;1.40;;;17.10;64.80;;;;;;5103784;28;20056;-37
2021/11/08 01:51:01;;;;;;;2.53;1.55;;;17.10;64.90;;;;;;5103698;28;20115;-37
2021/11/08 01:53:28;;;;;;;2.70;1.70;;;17.10;64.90;;;;;;5103545;28;20092;-37
2021/11/08 01:55:55;;;;;;;2.22;1.80;;;17.10;65.00;;;;;;5103233;28;20020;-37
2021/11/08 01:58:22;;;;;;;2.00;1.50;;;17.10;65.00;;;;;;5103435;28;20028;-38
2021/11/08 02:00:48;;;;;;;3.10;1.80;;;17.00;65.00;;;;;;5103681;28;20039;-37
2021/11/08 02:03:16;;;;;;;2.50;1.60;;;17.00;65.00;;;;;;5103475;28;20032;-37
2021/11/08 02:05:43;;;;;;;3.22;1.52;;;17.00;65.00;;;;;;5102866;28;20067;-37
2021/11/08 02:08:09;;;;;;;2.65;1.70;;;17.00;65.10;;;;;;5103068;28;20027;-37
2021/11/08 02:10:36;;;;;;;2.70;1.60;;;17.00;65.20;;;;;;5101662;28;20032;-37
2021/11/08 02:13:02;;;;;;;2.63;1.55;;;16.90;65.20;;;;;;5103332;28;20043;-37
2021/11/08 02:15:28;;;;;;;2.95;1.75;;;16.90;65.20;;;;;;5102783;28;20052;-37
2021/11/08 02:17:55;;;;;;;2.45;1.85;;;16.90;65.20;;;;;;5103221;28;20024;-37
2021/11/08 02:20:30;;;;;;;2.95;1.70;;;16.90;65.20;;;;;;5103146;28;20068;-37
2021/11/08 02:22:59;;;;;;;2.45;1.48;;;16.90;65.30;;;;;;5102548;28;20067;-37
2021/11/08 02:25:27;;;;;;;2.92;1.50;;;16.80;65.20;;;;;;5102943;28;20040;-37
2021/11/08 02:27:53;;;;;;;2.35;1.73;;;16.80;65.30;;;;;;5103174;28;20028;-37
2021/11/08 02:30:21;;;;;;;2.30;1.63;;;16.80;65.30;;;;;;5093575;28;20036;-37
2021/11/08 02:32:48;;;;;;;2.83;1.63;;;16.80;65.30;;;;;;5081571;28;20568;-37
2021/11/08 02:35:15;;;;;;;2.15;1.42;;;16.80;65.40;;;;;;5082462;28;20029;-37
2021/11/08 02:37:42;;;;;;;3.10;1.95;;;16.80;65.40;;;;;;5091198;28;20131;-37
2021/11/08 02:40:13;;;;;;;3.13;1.60;;;16.80;65.50;;;;;;5088706;28;20058;-37
2021/11/08 02:42:39;;;;;;;2.03;1.65;;;16.70;65.50;;;;;;5102869;28;20095;-37
2021/11/08 02:45:07;;;;;;;2.15;1.70;;;16.70;65.50;;;;;;5102982;28;20028;-37
2021/11/08 02:47:34;;;;;;;2.20;1.50;;;16.70;65.50;;;;;;5103111;28;20040;-37
2021/11/08 02:50:02;;;;;;;2.22;1.63;;;16.70;65.60;;;;;;5101352;28;20090;-37
2021/11/08 02:52:28;;;;;;;2.40;1.80;;;16.70;65.70;;;;;;5102920;28;20036;-37
2021/11/08 02:54:54;;;;;;;2.38;1.73;;;16.60;65.60;;;;;;5102877;28;20027;-37
2021/11/08 02:57:23;;;;;;;2.47;1.50;;;16.60;65.70;;;;;;5102642;28;20089;-37
2021/11/08 02:59:50;;;;;;;2.78;1.48;;;16.60;65.70;;;;;;5102602;28;20028;-37
2021/11/08 03:02:16;;;;;;;1.92;1.48;;;16.60;65.80;;;;;;5102627;28;20035;-37
2021/11/08 03:04:46;;;;;;;1.58;1.38;;;16.60;65.80;;;;;;5102890;28;20040;-37
2021/11/08 03:07:12;;;;;;;1.92;1.55;;;16.50;65.70;;;;;;5102193;28;20040;-37
2021/11/08 03:09:42;;;;;;;1.80;1.60;;;16.60;65.80;;;;;;5101252;28;20035;-37
2021/11/08 03:12:18;;;;;;;1.67;1.45;;;16.50;65.80;;;;;;5102711;28;20472;-37
2021/11/08 03:17:34;;;;;;;1.42;1.23;;;16.60;66.10;;;;;;5102562;28;20042;-37
2021/11/08 03:20:03;;;;;;;1.73;1.38;;;16.60;66.10;;;;;;5102211;28;20028;-37
2021/11/08 03:22:33;;;;;;;1.40;1.10;;;16.60;66.10;;;;;;5102592;28;20081;-38
2021/11/08 03:25:16;;;;;;;1.77;1.27;;;16.60;66.10;;;;;;5102536;28;20032;-37
2021/11/08 03:30:18;;;;;;;2.38;1.40;;;16.50;66.10;;;;;;5102355;28;20039;-37
2021/11/08 03:32:45;;;;;;;2.45;1.50;;;16.50;66.10;;;;;;5103218;28;20030;-37
2021/11/08 03:35:12;;;;;;;1.30;1.20;;;16.50;66.10;;;;;;5106182;28;20028;-37
2021/11/08 03:37:41;;;;;;;2.05;1.33;;;16.50;66.40;;;;;;5105823;28;20020;-37
2021/11/08 03:40:10;;;;;;;1.88;1.45;;;16.60;66.50;;;;;;5091917;28;20036;-37
2021/11/08 03:42:37;;;;;;;1.85;1.13;;;16.60;66.40;;;;;;5105973;28;20046;-37
2021/11/08 03:45:04;;;;;;;1.77;1.40;;;16.60;66.30;;;;;;5105993;28;20088;-37
2021/11/08 03:47:31;;;;;;;1.67;1.30;;;16.60;66.40;;;;;;5106003;28;20027;-37
2021/11/08 03:49:57;;;;;;;1.75;1.30;;;16.60;66.30;;;;;;5104628;28;20053;-37
2021/11/08 03:52:23;;;;;;;2.90;1.85;;;16.50;66.30;;;;;;5105563;28;20066;-37
2021/11/08 03:54:50;;;;;;;1.48;1.13;;;16.50;66.30;;;;;;5105899;28;20027;-37
2021/11/08 03:57:16;;;;;;;1.88;1.30;;;16.50;66.40;;;;;;5105568;28;20032;-37
2021/11/08 03:59:42;;;;;;;2.35;1.40;;;16.50;66.30;;;;;;5105509;28;20050;-37
2021/11/08 04:02:08;;;;;;;2.35;1.40;;;16.40;66.30;;;;;;5105550;28;20020;-37
2021/11/08 04:04:34;;;;;;;1.60;1.30;;;16.50;66.60;;;;;;5105663;28;20549;-37
2021/11/08 04:07:01;;;;;;;1.67;1.30;;;16.60;66.80;;;;;;5105204;28;20063;-37
2021/11/08 04:09:28;;;;;;;1.42;1.00;;;16.60;66.60;;;;;;5105581;28;20036;-37
2021/11/08 04:11:55;;;;;;;2.83;1.23;;;16.60;66.50;;;;;;5105332;28;20043;-39
2021/11/08 04:14:21;;;;;;;1.65;1.27;;;16.60;66.40;;;;;;5105602;28;20032;-37
2021/11/08 04:16:48;;;;;;;1.45;1.17;;;16.50;66.40;;;;;;5105556;28;20127;-37
2021/11/08 04:19:14;;;;;;;1.40;1.30;;;16.50;66.40;;;;;;5104151;28;20097;-37
2021/11/08 04:21:40;;;;;;;1.60;1.27;;;16.50;67.20;;;;;;5104116;28;20041;-36
2021/11/08 04:24:08;;;;;;;1.83;1.20;;;16.50;66.50;;;;;;5105522;28;20084;-36
2021/11/08 04:26:36;;;;;;;1.67;0.95;;;16.50;66.90;;;;;;5104717;28;20040;-36
2021/11/08 04:29:04;;;;;;;2.40;1.02;;;16.60;67.10;;;;;;5105269;28;20106;-37
2021/11/08 04:31:33;;;;;;;1.38;1.02;;;16.60;66.80;;;;;;5105028;28;20787;-36
2021/11/08 04:34:06;;;;;;;1.63;1.15;;;16.60;66.60;;;;;;5105094;28;20050;-37
2021/11/08 04:36:48;;;;;;;1.60;1.10;;;16.50;66.60;;;;;;5105030;28;20050;-37
2021/11/08 04:39:33;;;;;;;2.10;1.02;;;16.50;66.60;;;;;;5097836;28;20043;-37
2021/11/08 04:42:06;;;;;;;1.92;1.25;;;16.50;66.60;;;;;;5084360;28;20024;-38
2021/11/08 04:47:39;;;;;;;1.25;1.13;;;16.50;66.60;;;;;;5099327;28;20040;-38
2021/11/08 04:53:04;;;;;;;1.33;1.10;;;16.60;67.10;;;;;;5084317;28;20056;-38
2021/11/08 05:23:32;;;;;;;0.98;0.73;;;16.60;66.80;;;;;;5103836;28;20054;-37
2021/11/08 05:30:37;;;;;;;1.55;0.98;;;16.50;66.80;;;;;;5104201;28;20044;-37
2021/11/08 05:33:04;;;;;;;0.80;0.70;;;16.50;66.80;;;;;;5103832;28;20027;-37
2021/11/08 05:35:30;;;;;;;1.35;0.80;;;16.50;67.10;;;;;;5104047;28;20020;-37
2021/11/08 05:37:57;;;;;;;1.10;1.00;;;16.60;67.30;;;;;;5103748;28;20686;-37
2021/11/08 05:40:42;;;;;;;1.40;0.98;;;16.60;67.20;;;;;;5103640;28;20160;-37
2021/11/08 05:43:08;;;;;;;1.10;0.70;;;16.70;67.00;;;;;;5103436;28;20032;-37
2021/11/08 05:45:35;;;;;;;0.93;0.70;;;16.60;66.80;;;;;;5103693;28;20426;-37
2021/11/08 05:48:04;;;;;;;0.98;0.80;;;16.60;66.80;;;;;;5103688;28;20380;-37
2021/11/08 05:50:31;;;;;;;0.80;0.70;;;16.60;66.90;;;;;;5103431;28;20056;-37
2021/11/08 05:52:57;;;;;;;1.40;0.90;;;16.50;66.90;;;;;;5103597;28;20049;-37
2021/11/08 05:55:51;;;;;;;1.45;1.00;;;16.50;66.80;;;;;;5103582;28;20028;-38
2021/11/08 05:58:24;;;;;;;0.85;0.70;;;16.50;66.90;;;;;;5103174;28;20062;-38
2021/11/08 06:01:55;;;;;;;2.17;0.77;;;16.50;67.10;;;;;;5103513;28;20080;-38
2021/11/08 06:50:03;;;;;;;1.35;0.77;;;16.60;67.10;;;;;;5101853;28;20143;-38
2021/11/08 06:52:30;;;;;;;0.90;0.70;;;16.60;66.90;;;;;;5103008;28;20040;-37
2021/11/08 06:54:59;;;;;;;2.85;1.00;;;16.60;66.90;;;;;;5102730;28;20030;-38
2021/11/08 06:57:31;;;;;;;1.10;0.80;;;16.50;66.80;;;;;;5101371;28;20046;-38
2021/11/08 06:59:58;;;;;;;0.82;0.63;;;16.50;66.90;;;;;;5102828;28;20028;-38
2021/11/08 07:02:25;;;;;;;1.20;0.80;;;16.50;66.90;;;;;;5100786;28;20032;-38
2021/11/08 07:04:53;;;;;;;0.95;0.73;;;16.50;67.00;;;;;;5102788;28;20028;-38
2021/11/08 07:07:19;;;;;;;1.00;0.82;;;16.60;67.20;;;;;;5102412;28;20055;-38
2021/11/08 07:09:45;;;;;;;1.33;0.80;;;16.70;67.20;;;;;;5106667;28;20031;-38
2021/11/08 07:12:12;;;;;;;0.80;0.70;;;16.70;66.90;;;;;;5105296;28;20028;-38
2021/11/08 07:14:38;;;;;;;0.80;0.65;;;16.60;66.80;;;;;;5106323;28;20066;-38
2021/11/08 07:17:05;;;;;;;0.95;0.80;;;16.60;67.60;;;;;;5106531;28;20028;-38
2021/11/08 07:19:31;;;;;;;1.40;0.97;;;16.50;66.80;;;;;;5106533;28;20545;-38
2021/11/08 07:21:57;;;;;;;1.38;0.80;;;16.50;66.90;;;;;;5106481;28;20272;-38
2021/11/08 07:24:23;;;;;;;1.45;0.90;;;16.50;66.90;;;;;;5106346;28;20024;-38
2021/11/08 07:26:50;;;;;;;1.02;0.70;;;16.40;66.90;;;;;;5106004;28;20036;-38
2021/11/08 07:29:16;;;;;;;1.00;0.90;;;16.50;67.20;;;;;;5106398;28;20024;-38
2021/11/08 07:31:43;;;;;;;1.47;0.80;;;16.60;67.20;;;;;;5106294;28;20058;-38
2021/11/08 07:34:09;;;;;;;1.60;0.90;;;16.60;66.90;;;;;;5104619;28;20050;-38
2021/11/08 07:36:36;;;;;;;1.27;1.00;;;16.60;66.80;;;;;;5106148;28;20036;-38
2021/11/08 07:39:03;;;;;;;1.30;0.90;;;16.60;66.80;;;;;;5105966;28;20280;-38
2021/11/08 07:41:29;;;;;;;;;;;16.50;66.90;;;;;;5106367;28;20132;-39
2021/11/08 07:43:55;;;;;;;1.83;1.02;;;16.50;66.90;;;;;;5105559;28;19912;-38
2021/11/08 07:46:21;;;;;;;0.90;0.73;;;16.50;66.90;;;;;;5105883;28;20036;-38
2021/11/08 07:48:47;;;;;;;1.90;0.73;;;16.50;67.10;;;;;;5105903;28;20052;-38
2021/11/08 07:51:15;;;;;;;1.17;0.90;;;16.60;67.20;;;;;;5105871;28;20028;-38
2021/11/08 07:53:41;;;;;;;1.38;0.95;;;16.60;66.90;;;;;;5104227;28;20020;-38
2021/11/08 07:56:08;;;;;;;1.38;0.95;;;16.60;66.70;;;;;;5104489;28;20055;-38
2021/11/08 07:58:34;;;;;;;2.00;1.10;;;16.60;66.70;;;;;;5105880;28;20542;-38
2021/11/08 08:01:00;;;;;;;1.80;1.10;;;16.50;66.80;;;;;;5104367;28;20405;-38
2021/11/08 08:03:27;;;;;;;1.30;0.82;;;16.50;66.80;;;;;;5105705;28;20028;-38
2021/11/08 08:05:54;;;;;;;1.10;1.00;;;16.50;66.80;;;;;;5105310;28;20028;-38
2021/11/08 08:08:20;;;;;;;;;;;16.50;67.10;;;;;;5101980;28;20707;-38
2021/11/08 08:10:49;;;;;;;1.45;1.15;;;16.60;67.10;;;;;;5097127;28;19950;-37
2021/11/08 08:13:19;;;;;;;1.17;0.90;;;16.70;66.80;;;;;;5104983;28;20048;-38
2021/11/08 08:15:47;;;;;;;1.77;1.10;;;16.60;66.70;;;;;;5104615;28;20063;-38
2021/11/08 08:18:13;;;;;;;1.30;1.05;;;16.60;66.70;;;;;;5104092;28;20043;-38
2021/11/08 08:20:39;;;;;;;1.65;1.15;;;16.50;66.70;;;;;;5102716;28;20024;-38
2021/11/08 08:23:05;;;;;;;2.47;1.08;;;16.50;66.80;;;;;;5105357;28;20039;-38
2021/11/08 08:25:32;;;;;;;1.30;1.00;;;16.50;66.80;;;;;;5104827;28;20040;-38
2021/11/08 08:27:58;;;;;;;1.38;1.00;;;16.50;66.90;;;;;;5105126;28;20028;-37
2021/11/08 08:30:25;;;;;;;1.70;1.13;;;16.60;67.10;;;;;;5105124;28;20024;-38
2021/11/08 08:32:52;;;;;;;1.08;0.90;;;16.60;66.80;;;;;;5103857;28;20061;-38
2021/11/08 08:35:19;;;;;;;1.95;0.93;;;16.60;67.40;;;;;;5105036;28;20032;-37
2021/11/08 08:37:45;;;;;;;1.10;1.00;;;16.60;66.60;;;;;;5104770;28;20036;-38
2021/11/08 08:40:12;;;;;;;1.25;1.10;;;16.50;67.50;;;;;;5104732;28;20032;-38
2021/11/08 08:42:38;;;;;;;1.90;1.27;;;16.50;66.80;;;;;;5104781;28;20020;-38
2021/11/08 08:45:05;;;;;;;1.47;1.10;;;16.40;66.60;;;;;;5104497;28;20039;-38
2021/11/08 08:47:31;;;;;;;1.92;1.08;;;16.50;66.90;;;;;;5104915;28;20025;-38
2021/11/08 08:49:57;;;;;;;1.23;1.10;;;16.60;67.10;;;;;;5103371;28;20036;-38
2021/11/08 08:52:23;;;;;;;1.20;0.98;;;16.60;66.90;;;;;;5104819;28;20050;-38
2021/11/08 08:54:52;;;;;;;1.70;1.10;;;16.60;66.70;;;;;;5104617;28;20031;-38
2021/11/08 08:57:18;;;;;;;1.80;1.10;;;16.60;66.60;;;;;;5104404;28;20031;-38
2021/11/08 08:59:45;;;;;;;1.90;1.30;;;16.50;66.60;;;;;;5104572;28;20080;-38
2021/11/08 09:02:11;;;;;;;1.27;1.13;;;16.50;66.60;;;;;;5104577;28;20024;-38
2021/11/08 09:04:37;;;;;;;2.20;1.30;;;16.50;66.70;;;;;;5104263;28;20157;-38
2021/11/08 09:07:05;;;;;;;2.10;1.10;;;16.50;66.80;;;;;;5104045;28;20854;-38
2021/11/08 09:09:31;;;;;;;1.17;1.02;;;16.60;67.00;;;;;;5104363;28;20030;-38
2021/11/08 09:11:57;;;;;;;1.38;0.90;;;16.60;66.90;;;;;;5104288;28;20063;-37
2021/11/08 09:14:28;;;;;;;1.20;0.82;;;16.60;66.60;;;;;;5104327;28;20078;-38
2021/11/08 09:16:54;;;;;;;1.73;1.10;;;16.60;66.50;;;;;;5103729;28;20056;-38
2021/11/08 09:19:20;;;;;;;1.50;1.30;;;16.60;66.50;;;;;;5104312;28;20044;-38
2021/11/08 09:21:48;;;;;;;1.55;1.17;;;16.50;66.60;;;;;;5104328;28;20023;-38
2021/11/08 09:24:14;;;;;;;;;;;16.50;66.70;;;;;;5104580;28;20036;-38
2021/11/08 09:26:40;;;;;;;1.98;0.88;;;16.50;66.70;;;;;;5103712;28;19924;-38
2021/11/08 09:29:06;;;;;;;1.20;0.93;;;16.50;67.60;;;;;;5103856;28;20081;-38
2021/11/08 09:31:32;;;;;;;1.02;0.80;;;16.60;66.90;;;;;;5103481;28;20028;-38
2021/11/08 09:34:08;;;;;;;1.40;1.20;;;16.70;66.60;;;;;;5104036;28;20046;-37
2021/11/08 09:36:35;;;;;;;1.05;0.73;;;16.60;66.50;;;;;;5103509;28;20028;-38
2021/11/08 09:39:03;;;;;;;1.35;0.80;;;16.60;66.40;;;;;;5102193;28;20032;-38
2021/11/08 09:41:34;;;;;;;1.55;0.93;;;16.50;66.50;;;;;;5099574;28;20825;-38
2021/11/08 09:44:02;;;;;;;2.28;1.02;;;16.50;66.60;;;;;;5103607;28;20107;-38
2021/11/08 09:46:28;;;;;;;;;;;16.50;66.60;;;;;;5103892;28;20036;-37
2021/11/08 09:48:54;;;;;;;0.82;0.68;;;16.50;66.80;;;;;;5103717;28;19939;-38
2021/11/08 09:51:20;;;;;;;1.00;0.88;;;16.60;66.90;;;;;;5103726;28;20054;-38
2021/11/08 09:53:46;;;;;;;1.20;1.00;;;16.60;66.60;;;;;;5103347;28;20682;-38
2021/11/08 09:56:13;;;;;;;1.50;0.90;;;16.60;66.40;;;;;;5103183;28;20058;-38
2021/11/08 09:58:39;;;;;;;1.83;1.02;;;16.60;66.40;;;;;;5102078;28;20076;-38
2021/11/08 10:01:08;;;;;;;1.20;0.73;;;16.50;66.50;;;;;;5096367;28;20040;-38
2021/11/08 10:03:36;;;;;;;1.10;0.80;;;16.50;66.50;;;;;;5103470;28;20020;-38
2021/11/08 10:06:02;;;;;;;1.95;1.05;;;16.50;66.60;;;;;;5084867;28;20413;-38
2021/11/08 10:08:34;;;;;;;1.55;0.70;;;16.50;66.80;;;;;;5102986;28;20084;-38
2021/11/08 10:11:05;;;;;;;0.93;0.80;;;16.60;66.80;;;;;;5103232;28;20028;-38
2021/11/08 10:13:32;;;;;;;0.90;0.80;;;16.60;66.50;;;;;;5103072;28;20476;-38
2021/11/08 10:16:19;;;;;;;1.03;0.83;;;16.60;66.40;;;;;;5102938;28;20056;-37
2021/11/08 10:18:47;;;;;;;1.20;1.00;;;16.50;66.40;;;;;;5103226;28;20016;-38
2021/11/08 10:21:16;;;;;;;1.10;1.00;;;16.50;66.60;;;;;;5103085;28;20028;-38
2021/11/08 10:23:44;;;;;;;0.73;0.70;;;16.40;66.50;;;;;;5103072;28;20027;-38
2021/11/08 10:26:25;;;;;;;1.20;0.77;;;16.50;66.70;;;;;;5102661;28;20070;-38
2021/11/08 10:28:57;;;;;;;1.00;0.80;;;16.60;66.80;;;;;;5102995;28;20028;-38
2021/11/08 10:31:29;;;;;;;0.95;0.77;;;16.60;66.50;;;;;;5102947;28;20028;-38
2021/11/08 10:33:57;;;;;;;1.00;0.70;;;16.60;66.40;;;;;;5102934;28;20026;-38
2021/11/08 10:36:23;;;;;;;1.58;0.70;;;16.50;66.40;;;;;;5102789;28;20084;-37
2021/11/08 10:38:51;;;;;;;1.53;1.00;;;16.50;66.40;;;;;;5102843;28;20067;-38
2021/11/08 10:41:31;;;;;;;0.75;0.65;;;16.40;66.40;;;;;;5102956;28;20313;-38
2021/11/08 10:44:04;;;;;;;1.00;0.70;;;16.50;66.60;;;;;;5105834;28;20036;-38
2021/11/08 10:46:35;;;;;;;1.25;0.85;;;16.50;66.70;;;;;;5105251;28;20816;-37
2021/11/08 10:49:13;;;;;;;1.02;0.80;;;16.60;66.80;;;;;;5107052;28;20024;-38
2021/11/08 10:51:42;;;;;;;1.00;0.65;;;16.60;66.50;;;;;;5106970;28;20123;-38
2021/11/08 10:54:11;;;;;;;1.17;0.70;;;16.60;66.40;;;;;;5106898;28;20028;-38
2021/11/08 10:56:41;;;;;;;1.63;0.68;;;16.50;66.30;;;;;;5106585;28;20044;-38
2021/11/08 10:59:19;;;;;;;1.45;0.80;;;16.50;66.50;;;;;;5106751;28;20061;-38
2021/11/08 11:01:50;;;;;;;;;;;16.50;66.50;;;;;;5107135;28;20081;-38
2021/11/08 11:04:17;;;;;;;0.90;0.70;;;16.40;66.50;;;;;;5106926;28;19915;-38
2021/11/08 11:06:44;;;;;;;1.02;0.82;;;16.60;66.90;;;;;;5106198;28;20040;-37
2021/11/08 11:09:21;;;;;;;0.60;0.60;;;16.60;66.60;;;;;;5106638;28;20137;-38
2021/11/08 11:12:04;;;;;;;1.77;0.63;;;16.60;66.40;;;;;;5106480;28;20085;-38
2021/11/08 11:14:49;;;;;;;0.80;0.70;;;16.60;66.30;;;;;;5105318;28;20059;-38
2021/11/08 11:17:24;;;;;;;0.70;0.70;;;16.50;66.40;;;;;;5106100;28;20048;-38
2021/11/08 11:19:51;;;;;;;1.27;0.98;;;16.50;66.50;;;;;;5106391;28;20028;-38
2021/11/08 11:22:21;;;;;;;0.93;0.60;;;16.50;66.50;;;;;;5106528;28;20059;-37
2021/11/08 11:24:53;;;;;;;1.15;0.80;;;16.50;66.70;;;;;;5106426;28;20032;-38
2021/11/08 11:27:26;;;;;;;1.00;0.90;;;16.60;66.60;;;;;;5105604;28;20035;-38
2021/11/08 11:29:53;;;;;;;0.90;0.73;;;16.60;66.40;;;;;;5106154;28;20031;-37
2021/11/08 11:32:23;;;;;;;1.67;1.00;;;16.60;66.30;;;;;;5104826;28;20020;-38
2021/11/08 11:34:50;;;;;;;1.20;0.68;;;16.60;66.30;;;;;;5106241;28;20028;-38
2021/11/08 11:37:16;;;;;;;1.00;0.75;;;16.50;66.30;;;;;;5101038;28;20024;-38
2021/11/08 11:39:43;;;;;;;1.05;0.85;;;16.40;66.40;;;;;;5102644;28;20028;-38
2021/11/08 11:42:09;;;;;;;0.98;0.70;;;16.50;66.60;;;;;;5105843;28;20056;-38
2021/11/08 11:44:35;;;;;;;0.98;0.75;;;16.50;66.80;;;;;;5105954;28;20037;-37
2021/11/08 11:47:01;;;;;;;1.00;0.75;;;16.60;66.70;;;;;;5105786;28;20040;-38
2021/11/08 11:49:28;;;;;;;1.05;0.80;;;16.60;66.30;;;;;;5105569;28;20028;-38
2021/11/08 11:51:56;;;;;;;0.70;0.65;;;16.60;66.20;;;;;;5105907;28;20073;-38
2021/11/08 11:54:25;;;;;;;0.82;0.70;;;16.60;66.30;;;;;;5105352;28;20058;-38
2021/11/08 11:56:52;;;;;;;1.23;0.90;;;16.50;66.40;;;;;;5103099;28;20031;-38
2021/11/08 11:59:19;;;;;;;0.80;0.60;;;16.40;66.40;;;;;;5105474;28;20028;-40
2021/11/08 12:01:45;;;;;;;0.85;0.70;;;16.50;66.50;;;;;;5105802;28;20036;-38
2021/11/08 12:04:12;;;;;;;1.48;0.90;;;16.60;66.80;;;;;;5105378;28;20119;-38
2021/11/08 12:06:40;;;;;;;0.98;0.73;;;16.60;66.50;;;;;;5105432;28;20060;-38
2021/11/08 12:09:09;;;;;;;1.58;0.70;;;16.60;66.30;;;;;;5104616;28;20074;-38
2021/11/08 12:11:41;;;;;;;2.03;0.73;;;16.60;66.30;;;;;;5088939;28;20028;-38
2021/11/08 12:14:16;;;;;;;0.65;0.50;;;16.50;66.30;;;;;;5105235;28;20028;-38
2021/11/08 12:16:57;;;;;;;1.27;0.70;;;16.50;66.40;;;;;;5104829;28;20044;-38
2021/11/08 12:19:26;;;;;;;0.60;0.55;;;16.50;66.60;;;;;;5105324;28;20047;-38
2021/11/08 12:21:52;;;;;;;1.20;0.80;;;16.60;66.80;;;;;;5105255;28;20029;-39
2021/11/08 12:24:28;;;;;;;0.73;0.65;;;16.60;66.60;;;;;;5105094;28;20031;-38
2021/11/08 12:27:06;;;;;;;0.75;0.60;;;16.60;66.20;;;;;;5087078;28;20028;-38
2021/11/08 12:29:32;;;;;;;0.93;0.75;;;16.60;66.20;;;;;;5105247;28;20024;-38
2021/11/08 12:32:09;;;;;;;1.65;0.93;;;16.50;66.30;;;;;;5105148;28;20034;-38
2021/11/08 12:34:40;;;;;;;1.02;0.60;;;16.50;66.40;;;;;;5104755;28;20715;-38
2021/11/08 12:37:07;;;;;;;0.80;0.70;;;16.50;66.40;;;;;;5104798;28;20016;-38
2021/11/08 12:39:33;;;;;;;0.70;0.60;;;16.50;66.50;;;;;;5103348;28;20055;-38
2021/11/08 12:42:12;;;;;;;0.63;0.60;;;16.60;66.70;;;;;;5104726;28;20028;-38
2021/11/08 12:44:45;;;;;;;1.50;0.80;;;16.60;66.40;;;;;;5104525;28;20046;-38
2021/11/08 12:47:12;;;;;;;0.63;0.45;;;16.60;66.20;;;;;;5104576;28;20132;-38
2021/11/08 12:49:49;;;;;;;1.00;0.80;;;16.60;66.20;;;;;;5104672;28;20020;-38
2021/11/08 12:52:20;;;;;;;1.00;0.80;;;16.50;66.30;;;;;;5104544;28;20066;-37
2021/11/08 12:55:15;;;;;;;0.73;0.65;;;16.50;66.30;;;;;;5104199;28;20028;-38
2021/11/08 12:57:55;;;;;;;2.70;0.80;;;16.40;66.30;;;;;;5087187;28;20099;-38
2021/11/08 13:00:26;;;;;;;0.65;0.55;;;16.50;66.60;;;;;;5104573;28;20031;-38
2021/11/08 13:03:00;;;;;;;1.02;0.73;;;16.60;66.60;;;;;;5104583;28;20057;-38
2021/11/08 13:05:35;;;;;;;0.85;0.68;;;16.60;66.40;;;;;;5103583;28;20102;-38
2021/11/08 13:08:01;;;;;;;1.10;0.90;;;16.60;67.00;;;;;;5103996;28;20032;-38
2021/11/08 13:10:31;;;;;;;0.95;0.82;;;16.60;66.20;;;;;;5103897;28;20039;-38
2021/11/08 13:12:57;;;;;;;1.40;0.90;;;16.50;66.20;;;;;;5103894;28;20604;-38
2021/11/08 13:15:30;;;;;;;0.97;0.60;;;16.50;66.30;;;;;;5103685;28;20027;-38
2021/11/08 13:18:06;;;;;;;1.05;0.70;;;16.40;66.30;;;;;;5104021;28;20040;-38
2021/11/08 13:20:38;;;;;;;1.52;0.60;;;16.50;66.50;;;;;;5104083;28;20016;-38
2021/11/08 13:23:08;;;;;;;0.82;0.68;;;16.60;66.60;;;;;;5104025;28;20035;-38
2021/11/08 13:25:36;;;;;;;1.30;0.70;;;16.60;66.40;;;;;;5103459;28;20054;-38
2021/11/08 13:28:08;;;;;;;1.38;0.70;;;16.60;66.20;;;;;;5104008;28;20058;-38
2021/11/08 13:30:39;;;;;;;1.00;0.70;;;16.60;66.20;;;;;;5103853;28;20054;-38
2021/11/08 13:33:07;;;;;;;1.40;0.90;;;16.50;66.30;;;;;;5103974;28;20047;-38
2021/11/08 13:35:33;;;;;;;1.52;0.80;;;16.50;66.30;;;;;;5103721;28;20194;-38
2021/11/08 13:38:11;;;;;;;1.30;0.90;;;16.50;66.50;;;;;;5103540;28;20035;-37
2021/11/08 13:41:04;;;;;;;0.95;0.63;;;16.60;66.70;;;;;;5103712;28;20488;-38
2021/11/08 13:43:44;;;;;;;1.52;0.82;;;16.60;66.60;;;;;;5092750;28;20136;-38
2021/11/08 13:46:34;;;;;;;0.82;0.70;;;16.60;66.30;;;;;;5103044;28;20092;-38
2021/11/08 13:49:11;;;;;;;1.33;0.85;;;16.60;66.20;;;;;;5103553;28;20040;-38
2021/11/08 13:51:51;;;;;;;1.30;0.80;;;16.60;66.30;;;;;;5103467;28;20145;-39
2021/11/08 13:54:39;;;;;;;1.25;0.80;;;16.50;66.30;;;;;;5103238;28;20024;-38
2021/11/08 13:57:12;;;;;;;0.80;0.63;;;16.50;66.50;;;;;;5099878;28;20035;-38
2021/11/08 13:59:43;;;;;;;0.70;0.60;;;16.60;66.70;;;;;;5101977;28;20402;-38
2021/11/08 14:02:13;;;;;;;1.50;0.82;;;16.70;66.60;;;;;;5103354;28;20038;-38
2021/11/08 14:04:45;;;;;;;1.00;0.57;;;16.70;66.40;;;;;;5102961;28;20016;-38
2021/11/08 14:07:12;;;;;;;1.15;0.82;;;16.60;66.30;;;;;;5102956;28;20477;-37
2021/11/08 14:09:41;;;;;;;0.73;0.60;;;16.60;66.30;;;;;;5102598;28;20038;-38
2021/11/08 14:12:08;;;;;;;0.95;0.65;;;16.50;66.30;;;;;;5103277;28;20123;-38
2021/11/08 14:14:38;;;;;;;0.90;0.57;;;16.50;66.40;;;;;;5103161;28;20503;-38
2021/11/08 14:17:22;;;;;;;0.95;0.70;;;16.50;66.60;;;;;;5102271;28;20052;-38
2021/11/08 14:19:53;;;;;;;1.17;0.70;;;16.60;66.80;;;;;;5103162;28;20079;-38
2021/11/08 14:22:23;;;;;;;0.90;0.75;;;16.70;66.60;;;;;;5103020;28;20036;-38
2021/11/08 14:24:49;;;;;;;1.17;0.95;;;16.70;66.50;;;;;;5102916;28;20040;-38
2021/11/08 14:27:18;;;;;;;0.65;0.63;;;16.60;66.30;;;;;;5102639;28;20036;-38